sensor_id;sensor_type;location;lat;lon;timestamp;pressure;altitude;pressure_sealevel;temperature;humidity
69855;BME280;57146;48.140;16.304;2024-01-25T00:00:19;99951.81;;;9.15;62.53
69855;BME280;57146;48.140;16.304;2024-01-25T00:02:47;99962.03;;;9.16;62.38
69855;BME280;57146;48.140;16.304;2024-01-25T00:05:14;99954.19;;;9.11;63.31
69855;BME280;57146;48.140;16.304;2024-01-25T00:07:48;99948.09;;;9.16;62.04
69855;BME280;57146;48.140;16.304;2024-01-25T00:10:17;99954.69;;;9.13;62.81
69855;BME280;57146;48.140;16.304;2024-01-25T00:12:45;99938.66;;;9.15;63.03
69855;BME280;57146;48.140;16.304;2024-01-25T00:15:16;99948.13;;;9.10;62.89
69855;BME280;57146;48.140;16.304;2024-01-25T00:17:43;99947.34;;;9.10;63.27
69855;BME280;57146;48.140;16.304;2024-01-25T00:20:10;99947.63;;;9.08;63.39
69855;BME280;57146;48.140;16.304;2024-01-25T00:22:37;99938.97;;;9.08;63.12
69855;BME280;57146;48.140;16.304;2024-01-25T00:25:05;99941.59;;;9.08;62.79
69855;BME280;57146;48.140;16.304;2024-01-25T00:27:32;99956.03;;;9.05;62.87
69855;BME280;57146;48.140;16.304;2024-01-25T00:30:00;99926.13;;;9.01;63.77
69855;BME280;57146;48.140;16.304;2024-01-25T00:32:27;99948.47;;;9.04;63.24
69855;BME280;57146;48.140;16.304;2024-01-25T00:34:54;99953.72;;;9.04;62.73
69855;BME280;57146;48.140;16.304;2024-01-25T00:37:22;99945.53;;;9.05;63.12
69855;BME280;57146;48.140;16.304;2024-01-25T00:39:49;99958.69;;;9.05;62.90
69855;BME280;57146;48.140;16.304;2024-01-25T00:42:21;99959.50;;;9.01;62.81
69855;BME280;57146;48.140;16.304;2024-01-25T00:44:49;99953.72;;;8.99;63.23
69855;BME280;57146;48.140;16.304;2024-01-25T00:47:16;99956.09;;;9.00;63.42
69855;BME280;57146;48.140;16.304;2024-01-25T00:49:44;99935.34;;;8.99;62.97
69855;BME280;57146;48.140;16.304;2024-01-25T00:52:11;99941.13;;;8.96;62.58
69855;BME280;57146;48.140;16.304;2024-01-25T00:54:39;99962.66;;;8.98;62.18
69855;BME280;57146;48.140;16.304;2024-01-25T00:57:06;99967.38;;;8.96;62.41
69855;BME280;57146;48.140;16.304;2024-01-25T00:59:34;99971.84;;;9.00;61.91
69855;BME280;57146;48.140;16.304;2024-01-25T01:02:03;99972.63;;;9.01;62.01
69855;BME280;57146;48.140;16.304;2024-01-25T01:04:35;99958.97;;;8.99;62.33
69855;BME280;57146;48.140;16.304;2024-01-25T01:07:15;99988.16;;;8.97;61.64
69855;BME280;57146;48.140;16.304;2024-01-25T01:09:43;99976.38;;;8.90;62.60
69855;BME280;57146;48.140;16.304;2024-01-25T01:12:10;99972.94;;;8.89;62.60
69855;BME280;57146;48.140;16.304;2024-01-25T01:14:37;99965.63;;;8.86;63.03
69855;BME280;57146;48.140;16.304;2024-01-25T01:17:05;99982.94;;;8.87;62.74
69855;BME280;57146;48.140;16.304;2024-01-25T01:19:32;99960.09;;;8.87;62.42
69855;BME280;57146;48.140;16.304;2024-01-25T01:21:59;99980.31;;;8.87;62.03
69855;BME280;57146;48.140;16.304;2024-01-25T01:24:26;99977.69;;;8.87;62.66
69855;BME280;57146;48.140;16.304;2024-01-25T01:26:53;99969.03;;;8.86;62.38
69855;BME280;57146;48.140;16.304;2024-01-25T01:29:20;99977.94;;;8.85;62.19
69855;BME280;57146;48.140;16.304;2024-01-25T01:31:47;99980.56;;;8.85;62.56
69855;BME280;57146;48.140;16.304;2024-01-25T01:34:14;99964.03;;;8.85;61.84
69855;BME280;57146;48.140;16.304;2024-01-25T01:36:42;99969.81;;;8.82;62.36
69855;BME280;57146;48.140;16.304;2024-01-25T01:39:08;99977.69;;;8.82;62.19
69855;BME280;57146;48.140;16.304;2024-01-25T01:41:36;99966.69;;;8.80;62.68
69855;BME280;57146;48.140;16.304;2024-01-25T01:44:02;99973.25;;;8.77;63.12
69855;BME280;57146;48.140;16.304;2024-01-25T01:46:33;99962.75;;;8.77;62.40
69855;BME280;57146;48.140;16.304;2024-01-25T01:49:01;99976.16;;;8.76;63.40
69855;BME280;57146;48.140;16.304;2024-01-25T01:51:32;99979.06;;;8.74;63.61
69855;BME280;57146;48.140;16.304;2024-01-25T01:54:01;99969.63;;;8.73;62.52
69855;BME280;57146;48.140;16.304;2024-01-25T01:56:29;99979.59;;;8.71;62.85
69855;BME280;57146;48.140;16.304;2024-01-25T01:58:58;99965.44;;;8.72;62.45
69855;BME280;57146;48.140;16.304;2024-01-25T02:01:27;99964.38;;;8.73;62.90
69855;BME280;57146;48.140;16.304;2024-01-25T02:03:55;99976.97;;;8.71;63.17
69855;BME280;57146;48.140;16.304;2024-01-25T02:06:23;99968.06;;;8.72;62.30
69855;BME280;57146;48.140;16.304;2024-01-25T02:08:51;99969.13;;;8.66;62.76
69855;BME280;57146;48.140;16.304;2024-01-25T02:11:18;99955.75;;;8.62;63.13
69855;BME280;57146;48.140;16.304;2024-01-25T02:13:45;99959.69;;;8.65;62.52
69855;BME280;57146;48.140;16.304;2024-01-25T02:16:13;99958.09;;;8.64;63.26
69855;BME280;57146;48.140;16.304;2024-01-25T02:18:43;99960.47;;;8.60;63.05
69855;BME280;57146;48.140;16.304;2024-01-25T02:21:10;99956.03;;;8.56;63.32
69855;BME280;57146;48.140;16.304;2024-01-25T02:23:37;99946.31;;;8.56;63.73
69855;BME280;57146;48.140;16.304;2024-01-25T02:26:04;99938.97;;;8.58;63.04
69855;BME280;57146;48.140;16.304;2024-01-25T02:28:31;99952.63;;;8.55;63.09
69855;BME280;57146;48.140;16.304;2024-01-25T02:31:01;99937.41;;;8.57;62.73
69855;BME280;57146;48.140;16.304;2024-01-25T02:33:28;99943.97;;;8.55;63.13
69855;BME280;57146;48.140;16.304;2024-01-25T02:35:55;99951.06;;;8.54;63.23
69855;BME280;57146;48.140;16.304;2024-01-25T02:38:22;99950.28;;;8.54;62.95
69855;BME280;57146;48.140;16.304;2024-01-25T02:40:49;99940.28;;;8.56;63.23
69855;BME280;57146;48.140;16.304;2024-01-25T02:43:17;99942.38;;;8.59;63.05
69855;BME280;57146;48.140;16.304;2024-01-25T02:45:44;99941.84;;;8.57;63.04
69855;BME280;57146;48.140;16.304;2024-01-25T02:48:11;99933.19;;;8.56;62.06
69855;BME280;57146;48.140;16.304;2024-01-25T02:50:38;99954.97;;;8.57;63.25
69855;BME280;57146;48.140;16.304;2024-01-25T02:53:05;99939.03;;;8.48;63.23
69855;BME280;57146;48.140;16.304;2024-01-25T02:55:32;99940.81;;;8.53;62.54
69855;BME280;57146;48.140;16.304;2024-01-25T02:57:59;99940.31;;;8.51;62.43
69855;BME280;57146;48.140;16.304;2024-01-25T03:00:26;99940.88;;;8.48;62.84
69855;BME280;57146;48.140;16.304;2024-01-25T03:02:53;99931.44;;;8.47;63.06
69855;BME280;57146;48.140;16.304;2024-01-25T03:05:20;99923.56;;;8.47;62.59
69855;BME280;57146;48.140;16.304;2024-01-25T03:07:47;99923.81;;;8.45;62.67
69855;BME280;57146;48.140;16.304;2024-01-25T03:10:14;99930.38;;;8.43;62.79
69855;BME280;57146;48.140;16.304;2024-01-25T03:12:41;99934.59;;;8.44;61.91
69855;BME280;57146;48.140;16.304;2024-01-25T03:15:10;99926.72;;;8.44;62.47
69855;BME280;57146;48.140;16.304;2024-01-25T03:17:37;99920.69;;;8.43;62.35
69855;BME280;57146;48.140;16.304;2024-01-25T03:20:06;99929.88;;;8.41;62.69
69855;BME280;57146;48.140;16.304;2024-01-25T03:22:34;99940.88;;;8.43;62.97
69855;BME280;57146;48.140;16.304;2024-01-25T03:25:00;99920.16;;;8.41;63.54
69855;BME280;57146;48.140;16.304;2024-01-25T03:27:27;99916.22;;;8.38;63.82
69855;BME280;57146;48.140;16.304;2024-01-25T03:29:54;99929.34;;;8.38;64.76
69855;BME280;57146;48.140;16.304;2024-01-25T03:32:22;99934.34;;;8.40;64.79
69855;BME280;57146;48.140;16.304;2024-01-25T03:34:49;99929.59;;;8.37;65.04
69855;BME280;57146;48.140;16.304;2024-01-25T03:37:16;99918.56;;;8.35;65.36
69855;BME280;57146;48.140;16.304;2024-01-25T03:39:43;99930.63;;;8.36;65.29
69855;BME280;57146;48.140;16.304;2024-01-25T03:42:10;99923.81;;;8.35;64.52
69855;BME280;57146;48.140;16.304;2024-01-25T03:44:37;99925.16;;;8.37;65.34
69855;BME280;57146;48.140;16.304;2024-01-25T03:47:04;99930.38;;;8.32;65.32
69855;BME280;57146;48.140;16.304;2024-01-25T03:49:31;99924.59;;;8.35;65.44
69855;BME280;57146;48.140;16.304;2024-01-25T03:51:59;99926.19;;;8.36;65.02
69855;BME280;57146;48.140;16.304;2024-01-25T03:54:25;99924.34;;;8.32;65.71
69855;BME280;57146;48.140;16.304;2024-01-25T03:57:18;99925.69;;;8.29;64.96
69855;BME280;57146;48.140;16.304;2024-01-25T03:59:45;99920.94;;;8.31;64.81
69855;BME280;57146;48.140;16.304;2024-01-25T04:02:11;99921.22;;;8.30;65.27
69855;BME280;57146;48.140;16.304;2024-01-25T04:04:39;99918.84;;;8.28;65.87
69855;BME280;57146;48.140;16.304;2024-01-25T04:07:06;99927.00;;;8.27;65.22
69855;BME280;57146;48.140;16.304;2024-01-25T04:09:33;99922.00;;;8.25;65.64
69855;BME280;57146;48.140;16.304;2024-01-25T04:12:00;99918.88;;;8.23;65.74
69855;BME280;57146;48.140;16.304;2024-01-25T04:14:27;99923.59;;;8.21;65.48
69855;BME280;57146;48.140;16.304;2024-01-25T04:16:54;99926.50;;;8.20;65.63
69855;BME280;57146;48.140;16.304;2024-01-25T04:19:21;99923.09;;;8.19;65.23
69855;BME280;57146;48.140;16.304;2024-01-25T04:21:48;99918.88;;;8.18;65.57
69855;BME280;57146;48.140;16.304;2024-01-25T04:24:15;99924.66;;;8.20;65.31
69855;BME280;57146;48.140;16.304;2024-01-25T04:26:42;99913.91;;;8.16;65.61
69855;BME280;57146;48.140;16.304;2024-01-25T04:29:09;99915.22;;;8.19;65.31
69855;BME280;57146;48.140;16.304;2024-01-25T04:31:43;99937.53;;;8.16;65.33
69855;BME280;57146;48.140;16.304;2024-01-25T04:34:10;99933.06;;;8.17;65.52
69855;BME280;57146;48.140;16.304;2024-01-25T04:36:37;99916.00;;;8.14;65.25
69855;BME280;57146;48.140;16.304;2024-01-25T04:39:04;99932.28;;;8.16;65.57
69855;BME280;57146;48.140;16.304;2024-01-25T04:41:31;99936.75;;;8.16;64.85
69855;BME280;57146;48.140;16.304;2024-01-25T04:43:58;99944.34;;;8.12;65.73
69855;BME280;57146;48.140;16.304;2024-01-25T04:46:24;99949.31;;;8.14;65.78
69855;BME280;57146;48.140;16.304;2024-01-25T04:48:51;99951.69;;;8.15;65.61
69855;BME280;57146;48.140;16.304;2024-01-25T04:51:19;99951.69;;;8.15;65.69
69855;BME280;57146;48.140;16.304;2024-01-25T04:53:46;99950.66;;;8.11;65.74
69855;BME280;57146;48.140;16.304;2024-01-25T04:56:13;99953.81;;;8.08;66.30
69855;BME280;57146;48.140;16.304;2024-01-25T04:58:40;99954.84;;;8.07;65.51
69855;BME280;57146;48.140;16.304;2024-01-25T05:01:07;99956.69;;;8.07;65.96
69855;BME280;57146;48.140;16.304;2024-01-25T05:03:34;99952.50;;;8.06;65.87
69855;BME280;57146;48.140;16.304;2024-01-25T05:06:02;99942.50;;;8.13;65.07
69855;BME280;57146;48.140;16.304;2024-01-25T05:08:28;99930.47;;;8.12;65.47
69855;BME280;57146;48.140;16.304;2024-01-25T05:10:55;99940.69;;;8.08;66.09
69855;BME280;57146;48.140;16.304;2024-01-25T05:13:22;99922.06;;;8.10;66.28
69855;BME280;57146;48.140;16.304;2024-01-25T05:15:49;99928.38;;;8.09;65.99
69855;BME280;57146;48.140;16.304;2024-01-25T05:18:17;99915.50;;;8.07;66.24
69855;BME280;57146;48.140;16.304;2024-01-25T05:20:44;99924.72;;;8.05;65.76
69855;BME280;57146;48.140;16.304;2024-01-25T05:23:11;99920.25;;;8.05;66.12
69855;BME280;57146;48.140;16.304;2024-01-25T05:25:38;99925.25;;;8.02;65.92
69855;BME280;57146;48.140;16.304;2024-01-25T05:28:06;99919.47;;;8.05;66.03
69855;BME280;57146;48.140;16.304;2024-01-25T05:30:34;99909.22;;;8.03;65.72
69855;BME280;57146;48.140;16.304;2024-01-25T05:33:01;99922.34;;;8.03;65.67
69855;BME280;57146;48.140;16.304;2024-01-25T05:35:28;99910.53;;;8.06;64.87
69855;BME280;57146;48.140;16.304;2024-01-25T05:37:56;99911.31;;;8.06;65.15
69855;BME280;57146;48.140;16.304;2024-01-25T05:40:23;99901.66;;;8.02;65.44
69855;BME280;57146;48.140;16.304;2024-01-25T05:42:50;99893.00;;;8.01;65.51
69855;BME280;57146;48.140;16.304;2024-01-25T05:45:17;99901.66;;;8.02;65.43
69855;BME280;57146;48.140;16.304;2024-01-25T05:47:44;99893.00;;;8.01;65.76
69855;BME280;57146;48.140;16.304;2024-01-25T05:50:12;99893.00;;;8.01;65.28
69855;BME280;57146;48.140;16.304;2024-01-25T05:52:39;99889.06;;;7.99;65.29
69855;BME280;57146;48.140;16.304;2024-01-25T05:55:06;99889.88;;;7.94;65.98
69855;BME280;57146;48.140;16.304;2024-01-25T05:57:36;99888.03;;;7.95;65.92
69855;BME280;57146;48.140;16.304;2024-01-25T06:00:04;99885.13;;;7.96;65.86
69855;BME280;57146;48.140;16.304;2024-01-25T06:02:35;99884.88;;;7.92;66.04
69855;BME280;57146;48.140;16.304;2024-01-25T06:05:02;99884.63;;;7.94;65.64
69855;BME280;57146;48.140;16.304;2024-01-25T06:07:29;99891.19;;;7.91;66.51
69855;BME280;57146;48.140;16.304;2024-01-25T06:09:56;99891.97;;;7.92;66.40
69855;BME280;57146;48.140;16.304;2024-01-25T06:12:23;99873.91;;;7.90;65.87
69855;BME280;57146;48.140;16.304;2024-01-25T06:14:50;99877.81;;;7.88;66.46
69855;BME280;57146;48.140;16.304;2024-01-25T06:17:17;99877.84;;;7.83;66.29
69855;BME280;57146;48.140;16.304;2024-01-25T06:19:44;99877.03;;;7.82;66.38
69855;BME280;57146;48.140;16.304;2024-01-25T06:22:11;99882.56;;;7.81;66.39
69855;BME280;57146;48.140;16.304;2024-01-25T06:24:38;99894.34;;;7.78;66.26
69855;BME280;57146;48.140;16.304;2024-01-25T06:27:05;99902.22;;;7.78;66.48
69855;BME280;57146;48.140;16.304;2024-01-25T06:29:32;99909.56;;;7.76;66.78
69855;BME280;57146;48.140;16.304;2024-01-25T06:31:59;99903.00;;;7.79;65.83
69855;BME280;57146;48.140;16.304;2024-01-25T06:34:28;99897.00;;;7.73;66.94
69855;BME280;57146;48.140;16.304;2024-01-25T06:36:55;99909.84;;;7.70;66.96
69855;BME280;57146;48.140;16.304;2024-01-25T06:39:22;99909.56;;;7.71;66.99
69855;BME280;57146;48.140;16.304;2024-01-25T06:41:48;99905.91;;;7.67;67.02
69855;BME280;57146;48.140;16.304;2024-01-25T06:44:16;99904.59;;;7.64;66.29
69855;BME280;57146;48.140;16.304;2024-01-25T06:46:43;99918.22;;;7.66;66.57
69855;BME280;57146;48.140;16.304;2024-01-25T06:49:10;99925.56;;;7.64;66.97
69855;BME280;57146;48.140;16.304;2024-01-25T06:51:37;99936.84;;;7.65;66.95
69855;BME280;57146;48.140;16.304;2024-01-25T06:54:04;99939.47;;;7.65;67.18
69855;BME280;57146;48.140;16.304;2024-01-25T06:56:31;99958.31;;;7.67;66.67
69855;BME280;57146;48.140;16.304;2024-01-25T06:58:58;99959.63;;;7.70;66.30
69855;BME280;57146;48.140;16.304;2024-01-25T07:01:25;99967.22;;;7.71;66.62
69855;BME280;57146;48.140;16.304;2024-01-25T07:03:53;99968.00;;;7.72;67.10
69855;BME280;57146;48.140;16.304;2024-01-25T07:06:20;99980.84;;;7.73;66.80
69855;BME280;57146;48.140;16.304;2024-01-25T07:08:47;99975.88;;;7.72;67.00
69855;BME280;57146;48.140;16.304;2024-01-25T07:11:14;99968.53;;;7.74;67.16
69855;BME280;57146;48.140;16.304;2024-01-25T07:13:41;99974.06;;;7.72;66.77
69855;BME280;57146;48.140;16.304;2024-01-25T07:16:08;99983.19;;;7.75;66.62
69855;BME280;57146;48.140;16.304;2024-01-25T07:18:35;99965.66;;;7.80;66.71
69855;BME280;57146;48.140;16.304;2024-01-25T07:21:03;99978.50;;;7.77;66.30
69855;BME280;57146;48.140;16.304;2024-01-25T07:23:30;99980.34;;;7.76;66.54
69855;BME280;57146;48.140;16.304;2024-01-25T07:25:57;99986.88;;;7.74;67.21
69855;BME280;57146;48.140;16.304;2024-01-25T07:28:24;99988.19;;;7.76;66.69
69855;BME280;57146;48.140;16.304;2024-01-25T07:30:51;99982.94;;;7.71;67.16
69855;BME280;57146;48.140;16.304;2024-01-25T07:33:19;99979.28;;;7.72;66.27
69855;BME280;57146;48.140;16.304;2024-01-25T07:35:46;99989.78;;;7.72;66.71
69855;BME280;57146;48.140;16.304;2024-01-25T07:38:14;99973.25;;;7.72;67.36
69855;BME280;57146;48.140;16.304;2024-01-25T07:40:41;99999.72;;;7.75;67.18
69855;BME280;57146;48.140;16.304;2024-01-25T07:43:08;99997.63;;;7.77;67.27
69855;BME280;57146;48.140;16.304;2024-01-25T07:45:35;100005.50;;;7.72;67.25
69855;BME280;57146;48.140;16.304;2024-01-25T07:48:02;100004.19;;;7.70;68.13
69855;BME280;57146;48.140;16.304;2024-01-25T07:50:40;100008.09;;;7.67;67.94
69855;BME280;57146;48.140;16.304;2024-01-25T07:53:07;100030.13;;;7.66;68.08
69855;BME280;57146;48.140;16.304;2024-01-25T07:55:34;100034.31;;;7.67;68.11
69855;BME280;57146;48.140;16.304;2024-01-25T07:58:01;100039.03;;;7.65;67.56
69855;BME280;57146;48.140;16.304;2024-01-25T08:00:28;100052.94;;;7.65;68.28
69855;BME280;57146;48.140;16.304;2024-01-25T08:02:55;100058.16;;;7.65;67.71
69855;BME280;57146;48.140;16.304;2024-01-25T08:05:22;100065.25;;;7.65;66.72
69855;BME280;57146;48.140;16.304;2024-01-25T08:08:02;100071.50;;;7.64;66.38
69855;BME280;57146;48.140;16.304;2024-01-25T08:10:29;100073.09;;;7.70;65.92
69855;BME280;57146;48.140;16.304;2024-01-25T08:12:56;100069.69;;;7.70;65.98
69855;BME280;57146;48.140;16.304;2024-01-25T08:15:32;100060.00;;;7.70;65.43
69855;BME280;57146;48.140;16.304;2024-01-25T08:17:59;100069.69;;;7.70;65.26
69855;BME280;57146;48.140;16.304;2024-01-25T08:20:32;100059.72;;;7.72;64.38
69855;BME280;57146;48.140;16.304;2024-01-25T08:22:59;100059.47;;;7.73;65.15
69855;BME280;57146;48.140;16.304;2024-01-25T08:25:28;100066.28;;;7.74;65.01
69855;BME280;57146;48.140;16.304;2024-01-25T08:27:55;100068.13;;;7.74;64.82
69855;BME280;57146;48.140;16.304;2024-01-25T08:30:23;100065.78;;;7.72;64.78
69855;BME280;57146;48.140;16.304;2024-01-25T08:32:50;100066.56;;;7.78;65.36
69855;BME280;57146;48.140;16.304;2024-01-25T08:35:17;100078.34;;;7.80;65.06
69855;BME280;57146;48.140;16.304;2024-01-25T08:37:44;100072.56;;;7.78;65.68
69855;BME280;57146;48.140;16.304;2024-01-25T08:40:12;100064.47;;;7.80;66.20
69855;BME280;57146;48.140;16.304;2024-01-25T08:42:39;100072.06;;;7.81;66.82
69855;BME280;57146;48.140;16.304;2024-01-25T08:45:06;100073.09;;;7.75;66.95
69855;BME280;57146;48.140;16.304;2024-01-25T08:47:33;100085.94;;;7.72;67.04
69855;BME280;57146;48.140;16.304;2024-01-25T08:50:00;100069.69;;;7.75;68.12
69855;BME280;57146;48.140;16.304;2024-01-25T08:52:27;100066.03;;;7.76;68.05
69855;BME280;57146;48.140;16.304;2024-01-25T08:54:54;100085.66;;;7.68;67.09
69855;BME280;57146;48.140;16.304;2024-01-25T08:57:21;100088.28;;;7.68;67.26
69855;BME280;57146;48.140;16.304;2024-01-25T08:59:48;100077.81;;;7.68;67.67
69855;BME280;57146;48.140;16.304;2024-01-25T09:02:16;100081.22;;;7.68;67.06
69855;BME280;57146;48.140;16.304;2024-01-25T09:04:44;100070.47;;;7.70;67.05
69855;BME280;57146;48.140;16.304;2024-01-25T09:07:11;100071.03;;;7.72;66.77
69855;BME280;57146;48.140;16.304;2024-01-25T09:09:38;100062.59;;;7.75;67.33
69855;BME280;57146;48.140;16.304;2024-01-25T09:12:06;100060.00;;;7.80;66.17
69855;BME280;57146;48.140;16.304;2024-01-25T09:14:33;100059.47;;;7.88;66.53
69855;BME280;57146;48.140;16.304;2024-01-25T09:17:00;100067.09;;;7.95;64.03
69855;BME280;57146;48.140;16.304;2024-01-25T09:19:27;100080.47;;;7.99;64.48
69855;BME280;57146;48.140;16.304;2024-01-25T09:21:54;100096.44;;;8.07;65.15
69855;BME280;57146;48.140;16.304;2024-01-25T09:24:21;100091.97;;;8.18;65.56
69855;BME280;57146;48.140;16.304;2024-01-25T09:26:48;100082.81;;;8.21;64.57
69855;BME280;57146;48.140;16.304;2024-01-25T09:29:15;100095.41;;;8.34;65.06
69855;BME280;57146;48.140;16.304;2024-01-25T09:31:42;100112.72;;;8.45;64.23
69855;BME280;57146;48.140;16.304;2024-01-25T09:34:10;100114.03;;;8.58;63.85
69855;BME280;57146;48.140;16.304;2024-01-25T09:36:37;100130.81;;;8.62;62.91
69855;BME280;57146;48.140;16.304;2024-01-25T09:39:04;100117.16;;;8.65;63.37
69855;BME280;57146;48.140;16.304;2024-01-25T09:41:31;100121.34;;;8.66;63.03
69855;BME280;57146;48.140;16.304;2024-01-25T09:43:58;100115.31;;;8.66;63.22
69855;BME280;57146;48.140;16.304;2024-01-25T09:46:26;100123.19;;;8.60;63.28
69855;BME280;57146;48.140;16.304;2024-01-25T09:48:53;100128.97;;;8.62;63.71
69855;BME280;57146;48.140;16.304;2024-01-25T09:51:22;100124.50;;;8.53;63.34
69855;BME280;57146;48.140;16.304;2024-01-25T09:53:51;100125.59;;;8.47;63.78
69855;BME280;57146;48.140;16.304;2024-01-25T09:56:20;100116.91;;;8.46;64.00
69855;BME280;57146;48.140;16.304;2024-01-25T09:58:47;100114.03;;;8.48;63.86
69855;BME280;57146;48.140;16.304;2024-01-25T10:01:15;100115.06;;;8.62;63.03
69855;BME280;57146;48.140;16.304;2024-01-25T10:03:45;100117.66;;;8.77;63.08
69855;BME280;57146;48.140;16.304;2024-01-25T10:06:13;100130.78;;;8.77;62.96
69855;BME280;57146;48.140;16.304;2024-01-25T10:08:41;100136.28;;;8.81;62.81
69855;BME280;57146;48.140;16.304;2024-01-25T10:11:09;100119.97;;;8.94;63.22
69855;BME280;57146;48.140;16.304;2024-01-25T10:16:16;100126.53;;;8.97;63.68
69855;BME280;57146;48.140;16.304;2024-01-25T10:18:46;100132.06;;;8.90;62.95
69855;BME280;57146;48.140;16.304;2024-01-25T10:21:15;100135.22;;;8.87;63.01
69855;BME280;57146;48.140;16.304;2024-01-25T10:23:45;100125.50;;;8.87;63.87
69855;BME280;57146;48.140;16.304;2024-01-25T10:26:13;100139.94;;;8.85;63.82
69855;BME280;57146;48.140;16.304;2024-01-25T10:28:40;100138.91;;;8.81;62.89
69855;BME280;57146;48.140;16.304;2024-01-25T10:31:07;100134.44;;;8.81;63.34
69855;BME280;57146;48.140;16.304;2024-01-25T10:33:38;100121.03;;;8.88;63.56
69855;BME280;57146;48.140;16.304;2024-01-25T10:36:08;100128.66;;;8.90;61.61
69855;BME280;57146;48.140;16.304;2024-01-25T10:38:35;100124.47;;;8.83;61.93
69855;BME280;57146;48.140;16.304;2024-01-25T10:41:05;100120.81;;;8.74;61.35
69855;BME280;57146;48.140;16.304;2024-01-25T10:43:32;100134.47;;;8.76;62.87
69855;BME280;57146;48.140;16.304;2024-01-25T10:46:00;100118.19;;;8.79;61.65
69855;BME280;57146;48.140;16.304;2024-01-25T10:48:30;100117.59;;;8.93;62.05
69855;BME280;57146;48.140;16.304;2024-01-25T10:50:58;100113.16;;;8.93;61.46
69855;BME280;57146;48.140;16.304;2024-01-25T10:53:26;100100.81;;;8.94;62.45
69855;BME280;57146;48.140;16.304;2024-01-25T10:55:53;100105.78;;;8.95;60.54
69855;BME280;57146;48.140;16.304;2024-01-25T10:58:23;100093.19;;;8.97;61.28
69855;BME280;57146;48.140;16.304;2024-01-25T11:00:51;100102.34;;;9.00;60.23
69855;BME280;57146;48.140;16.304;2024-01-25T11:03:18;100088.13;;;9.11;60.56
69855;BME280;57146;48.140;16.304;2024-01-25T11:05:46;100082.38;;;9.04;60.10
69855;BME280;57146;48.140;16.304;2024-01-25T11:08:19;100090.00;;;9.05;59.93
69855;BME280;57146;48.140;16.304;2024-01-25T11:10:50;100076.03;;;9.10;60.15
69855;BME280;57146;48.140;16.304;2024-01-25T11:13:25;100084.72;;;9.05;59.46
69855;BME280;57146;48.140;16.304;2024-01-25T11:15:53;100091.06;;;8.99;60.26
69855;BME280;57146;48.140;16.304;2024-01-25T11:18:20;100080.06;;;8.97;59.26
69855;BME280;57146;48.140;16.304;2024-01-25T11:20:47;100077.19;;;8.94;59.15
69855;BME280;57146;48.140;16.304;2024-01-25T11:23:15;100061.66;;;8.97;59.25
69855;BME280;57146;48.140;16.304;2024-01-25T11:25:47;100062.44;;;8.93;59.37
69855;BME280;57146;48.140;16.304;2024-01-25T11:28:14;100065.38;;;8.86;58.54
69855;BME280;57146;48.140;16.304;2024-01-25T11:30:42;100066.66;;;8.88;59.96
69855;BME280;57146;48.140;16.304;2024-01-25T11:33:10;100070.38;;;8.87;58.41
69855;BME280;57146;48.140;16.304;2024-01-25T11:35:38;100068.78;;;8.92;58.46
69855;BME280;57146;48.140;16.304;2024-01-25T11:38:05;100056.69;;;8.91;57.71
69855;BME280;57146;48.140;16.304;2024-01-25T11:40:32;100061.41;;;8.94;58.51
69855;BME280;57146;48.140;16.304;2024-01-25T11:43:05;100086.91;;;8.93;57.66
69855;BME280;57146;48.140;16.304;2024-01-25T11:45:32;100053.53;;;8.94;58.08
69855;BME280;57146;48.140;16.304;2024-01-25T11:47:59;100047.47;;;8.98;57.72
69855;BME280;57146;48.140;16.304;2024-01-25T11:50:26;100072.41;;;9.01;58.33
69855;BME280;57146;48.140;16.304;2024-01-25T11:52:53;100058.75;;;9.04;57.67
69855;BME280;57146;48.140;16.304;2024-01-25T11:55:20;100053.44;;;9.14;57.67
69855;BME280;57146;48.140;16.304;2024-01-25T11:57:48;100054.72;;;9.17;57.39
69855;BME280;57146;48.140;16.304;2024-01-25T12:00:15;100048.16;;;9.19;58.17
69855;BME280;57146;48.140;16.304;2024-01-25T12:02:42;100034.22;;;9.24;57.41
69855;BME280;57146;48.140;16.304;2024-01-25T12:05:10;100033.94;;;9.25;56.26
69855;BME280;57146;48.140;16.304;2024-01-25T12:08:08;100035.28;;;9.23;56.58
69855;BME280;57146;48.140;16.304;2024-01-25T12:10:35;100018.22;;;9.20;55.86
69855;BME280;57146;48.140;16.304;2024-01-25T12:13:02;100027.16;;;9.19;55.48
69855;BME280;57146;48.140;16.304;2024-01-25T12:15:32;100027.09;;;9.24;56.33
69855;BME280;57146;48.140;16.304;2024-01-25T12:17:59;100035.78;;;9.25;56.05
69855;BME280;57146;48.140;16.304;2024-01-25T12:20:26;100031.81;;;9.27;56.28
69855;BME280;57146;48.140;16.304;2024-01-25T12:22:54;100032.84;;;9.31;56.92
69855;BME280;57146;48.140;16.304;2024-01-25T12:25:24;100028.84;;;9.39;56.55
69855;BME280;57146;48.140;16.304;2024-01-25T12:27:53;100026.50;;;9.38;56.06
69855;BME280;57146;48.140;16.304;2024-01-25T12:30:20;100012.31;;;9.39;55.63
69855;BME280;57146;48.140;16.304;2024-01-25T12:32:50;100019.41;;;9.38;55.28
69855;BME280;57146;48.140;16.304;2024-01-25T12:35:17;100002.06;;;9.37;54.66
69855;BME280;57146;48.140;16.304;2024-01-25T12:37:45;100006.03;;;9.34;55.42
69855;BME280;57146;48.140;16.304;2024-01-25T12:40:12;99982.66;;;9.33;55.30
69855;BME280;57146;48.140;16.304;2024-01-25T12:42:39;99997.13;;;9.30;54.19
69855;BME280;57146;48.140;16.304;2024-01-25T12:45:06;99990.31;;;9.29;55.58
69855;BME280;57146;48.140;16.304;2024-01-25T12:47:33;99998.44;;;9.28;55.64
69855;BME280;57146;48.140;16.304;2024-01-25T12:50:00;99987.16;;;9.27;54.68
69855;BME280;57146;48.140;16.304;2024-01-25T12:52:29;99971.94;;;9.24;55.02
69855;BME280;57146;48.140;16.304;2024-01-25T12:54:56;99976.16;;;9.20;54.75
69855;BME280;57146;48.140;16.304;2024-01-25T12:57:23;99983.81;;;9.22;56.18
69855;BME280;57146;48.140;16.304;2024-01-25T12:59:50;99960.16;;;9.22;55.62
69855;BME280;57146;48.140;16.304;2024-01-25T13:02:18;99973.53;;;9.20;55.49